sensor_id;sensor_type;location;lat;lon;timestamp;temperature;humidity
36214;DHT22;37652;50.400;30.628;2022-09-09T00:02:24;10.20;99.90
36214;DHT22;37652;50.400;30.628;2022-09-09T00:04:29;10.10;99.90
36214;DHT22;37652;50.400;30.628;2022-09-09T00:06:42;10.10;99.90
36214;DHT22;37652;50.400;30.628;2022-09-09T00:09:12;9.70;99.90
36214;DHT22;37652;50.400;30.628;2022-09-09T00:11:28;10.00;99.90
36214;DHT22;37652;50.400;30.628;2022-09-09T00:13:43;9.90;99.90
36214;DHT22;37652;50.400;30.628;2022-09-09T00:20:16;9.80;99.90
36214;DHT22;37652;50.400;30.628;2022-09-09T00:22:24;9.80;99.90
36214;DHT22;37652;50.400;30.628;2022-09-09T00:24:32;9.80;99.90
36214;DHT22;37652;50.400;30.628;2022-09-09T00:29:03;9.80;99.90
36214;DHT22;37652;50.400;30.628;2022-09-09T00:31:13;9.90;99.90
36214;DHT22;37652;50.400;30.628;2022-09-09T00:33:19;9.70;99.90
36214;DHT22;37652;50.400;30.628;2022-09-09T00:35:33;9.70;99.90
36214;DHT22;37652;50.400;30.628;2022-09-09T00:39:45;10.00;99.90
36214;DHT22;37652;50.400;30.628;2022-09-09T00:41:56;9.70;99.90
36214;DHT22;37652;50.400;30.628;2022-09-09T00:46:56;9.60;99.90
36214;DHT22;37652;50.400;30.628;2022-09-09T00:49:09;9.60;99.90
36214;DHT22;37652;50.400;30.628;2022-09-09T00:54:18;10.20;99.90
36214;DHT22;37652;50.400;30.628;2022-09-09T00:56:30;9.60;99.90
36214;DHT22;37652;50.400;30.628;2022-09-09T01:00:44;9.30;99.90
36214;DHT22;37652;50.400;30.628;2022-09-09T01:06:54;10.30;99.90
36214;DHT22;37652;50.400;30.628;2022-09-09T01:11:14;9.60;99.90
36214;DHT22;37652;50.400;30.628;2022-09-09T01:13:27;10.20;99.90
36214;DHT22;37652;50.400;30.628;2022-09-09T01:15:31;9.60;99.90
36214;DHT22;37652;50.400;30.628;2022-09-09T01:20:17;9.40;99.90
36214;DHT22;37652;50.400;30.628;2022-09-09T01:24:38;9.10;99.90
36214;DHT22;37652;50.400;30.628;2022-09-09T01:26:45;9.20;99.90
36214;DHT22;37652;50.400;30.628;2022-09-09T01:28:48;9.50;99.90
36214;DHT22;37652;50.400;30.628;2022-09-09T01:32:54;9.50;99.90
36214;DHT22;37652;50.400;30.628;2022-09-09T01:37:10;9.40;99.90
36214;DHT22;37652;50.400;30.628;2022-09-09T01:41:12;9.70;99.90
36214;DHT22;37652;50.400;30.628;2022-09-09T01:43:13;9.90;99.90
36214;DHT22;37652;50.400;30.628;2022-09-09T01:49:18;9.00;99.90
36214;DHT22;37652;50.400;30.628;2022-09-09T01:53:21;9.20;99.90
36214;DHT22;37652;50.400;30.628;2022-09-09T01:55:35;9.20;99.90
36214;DHT22;37652;50.400;30.628;2022-09-09T02:00:08;9.10;99.90
36214;DHT22;37652;50.400;30.628;2022-09-09T02:06:37;8.60;99.90
36214;DHT22;37652;50.400;30.628;2022-09-09T02:08:43;9.00;99.90
36214;DHT22;37652;50.400;30.628;2022-09-09T02:11:11;9.00;99.90
36214;DHT22;37652;50.400;30.628;2022-09-09T02:13:14;9.00;99.90
36214;DHT22;37652;50.400;30.628;2022-09-09T02:15:36;9.60;99.90
36214;DHT22;37652;50.400;30.628;2022-09-09T02:17:41;8.90;99.90
36214;DHT22;37652;50.400;30.628;2022-09-09T02:19:46;8.80;99.90
36214;DHT22;37652;50.400;30.628;2022-09-09T02:21:49;8.80;99.90
36214;DHT22;37652;50.400;30.628;2022-09-09T02:23:51;8.80;99.90
36214;DHT22;37652;50.400;30.628;2022-09-09T02:25:55;8.70;99.90
36214;DHT22;37652;50.400;30.628;2022-09-09T02:30:01;8.70;99.90
36214;DHT22;37652;50.400;30.628;2022-09-09T02:32:06;8.40;99.90
36214;DHT22;37652;50.400;30.628;2022-09-09T02:34:09;8.70;99.90
36214;DHT22;37652;50.400;30.628;2022-09-09T02:36:12;8.70;99.90
36214;DHT22;37652;50.400;30.628;2022-09-09T02:42:18;9.10;99.90
36214;DHT22;37652;50.400;30.628;2022-09-09T02:48:51;8.90;99.90
36214;DHT22;37652;50.400;30.628;2022-09-09T02:51:18;8.80;99.90
36214;DHT22;37652;50.400;30.628;2022-09-09T02:53:24;8.80;99.90
36214;DHT22;37652;50.400;30.628;2022-09-09T02:57:39;8.80;99.90
36214;DHT22;37652;50.400;30.628;2022-09-09T02:59:43;8.80;99.90
36214;DHT22;37652;50.400;30.628;2022-09-09T03:05:47;9.10;99.90
36214;DHT22;37652;50.400;30.628;2022-09-09T03:15:53;8.50;99.90
36214;DHT22;37652;50.400;30.628;2022-09-09T03:19:55;8.50;99.90
36214;DHT22;37652;50.400;30.628;2022-09-09T03:23:59;8.00;99.90
36214;DHT22;37652;50.400;30.628;2022-09-09T03:28:01;7.90;99.90
36214;DHT22;37652;50.400;30.628;2022-09-09T03:36:06;8.70;99.90
36214;DHT22;37652;50.400;30.628;2022-09-09T03:40:10;8.40;99.90
36214;DHT22;37652;50.400;30.628;2022-09-09T03:42:14;8.20;99.90
36214;DHT22;37652;50.400;30.628;2022-09-09T03:46:21;8.40;99.90
36214;DHT22;37652;50.400;30.628;2022-09-09T03:48:23;8.40;99.90
36214;DHT22;37652;50.400;30.628;2022-09-09T03:54:27;8.50;99.90
36214;DHT22;37652;50.400;30.628;2022-09-09T04:04:31;9.00;99.90
36214;DHT22;37652;50.400;30.628;2022-09-09T04:06:32;8.00;99.90
36214;DHT22;37652;50.400;30.628;2022-09-09T04:08:33;8.90;99.90
36214;DHT22;37652;50.400;30.628;2022-09-09T04:10:35;8.50;99.90
36214;DHT22;37652;50.400;30.628;2022-09-09T04:32:56;9.10;99.90
36214;DHT22;37652;50.400;30.628;2022-09-09T04:45:05;9.20;99.90
36214;DHT22;37652;50.400;30.628;2022-09-09T04:49:08;8.70;99.90
36214;DHT22;37652;50.400;30.628;2022-09-09T04:51:12;9.70;99.90
36214;DHT22;37652;50.400;30.628;2022-09-09T04:57:15;9.10;99.90
36214;DHT22;37652;50.400;30.628;2022-09-09T05:01:21;9.30;99.90
36214;DHT22;37652;50.400;30.628;2022-09-09T05:05:23;9.80;99.90
36214;DHT22;37652;50.400;30.628;2022-09-09T05:11:29;9.50;99.90
36214;DHT22;37652;50.400;30.628;2022-09-09T05:15:32;10.00;99.90
36214;DHT22;37652;50.400;30.628;2022-09-09T05:19:34;10.00;99.90
36214;DHT22;37652;50.400;30.628;2022-09-09T05:29:40;10.40;99.90
36214;DHT22;37652;50.400;30.628;2022-09-09T05:33:46;10.90;99.90
36214;DHT22;37652;50.400;30.628;2022-09-09T05:41:51;10.40;99.90
36214;DHT22;37652;50.400;30.628;2022-09-09T05:43:52;10.00;99.90
36214;DHT22;37652;50.400;30.628;2022-09-09T05:46:07;10.60;99.90
36214;DHT22;37652;50.400;30.628;2022-09-09T05:50:09;10.50;99.90
36214;DHT22;37652;50.400;30.628;2022-09-09T05:56:21;11.60;99.90
36214;DHT22;37652;50.400;30.628;2022-09-09T06:00:26;12.60;99.90
36214;DHT22;37652;50.400;30.628;2022-09-09T06:04:28;12.80;99.90
36214;DHT22;37652;50.400;30.628;2022-09-09T06:06:32;12.00;99.90
36214;DHT22;37652;50.400;30.628;2022-09-09T06:14:41;13.00;99.90
36214;DHT22;37652;50.400;30.628;2022-09-09T06:21:02;13.10;99.90
36214;DHT22;37652;50.400;30.628;2022-09-09T06:23:06;13.00;99.90
36214;DHT22;37652;50.400;30.628;2022-09-09T06:25:08;12.10;99.90
36214;DHT22;37652;50.400;30.628;2022-09-09T06:31:13;12.80;99.90
36214;DHT22;37652;50.400;30.628;2022-09-09T06:41:20;14.10;99.90
36214;DHT22;37652;50.400;30.628;2022-09-09T06:43:25;13.70;99.90
36214;DHT22;37652;50.400;30.628;2022-09-09T06:47:28;13.70;99.90
36214;DHT22;37652;50.400;30.628;2022-09-09T06:51:32;13.10;99.90
36214;DHT22;37652;50.400;30.628;2022-09-09T06:53:35;14.40;99.40
36214;DHT22;37652;50.400;30.628;2022-09-09T06:55:36;14.90;99.90
36214;DHT22;37652;50.400;30.628;2022-09-09T07:01:43;14.90;99.90
36214;DHT22;37652;50.400;30.628;2022-09-09T07:03:53;15.10;98.00
36214;DHT22;37652;50.400;30.628;2022-09-09T07:05:56;15.30;97.70
36214;DHT22;37652;50.400;30.628;2022-09-09T07:11:59;15.20;99.90
36214;DHT22;37652;50.400;30.628;2022-09-09T07:14:00;15.70;96.90
36214;DHT22;37652;50.400;30.628;2022-09-09T07:18:06;15.60;99.90
36214;DHT22;37652;50.400;30.628;2022-09-09T07:20:07;15.90;99.90
36214;DHT22;37652;50.400;30.628;2022-09-09T07:24:10;16.10;95.20
36214;DHT22;37652;50.400;30.628;2022-09-09T07:26:13;16.20;99.90
36214;DHT22;37652;50.400;30.628;2022-09-09T07:30:15;16.30;94.30
36214;DHT22;37652;50.400;30.628;2022-09-09T07:34:18;16.40;99.90
36214;DHT22;37652;50.400;30.628;2022-09-09T07:36:20;16.60;93.50
36214;DHT22;37652;50.400;30.628;2022-09-09T07:40:26;17.30;99.90
36214;DHT22;37652;50.400;30.628;2022-09-09T07:42:26;17.30;99.90
36214;DHT22;37652;50.400;30.628;2022-09-09T07:46:28;17.30;99.90
36214;DHT22;37652;50.400;30.628;2022-09-09T07:48:29;17.90;99.90
36214;DHT22;37652;50.400;30.628;2022-09-09T07:56:33;17.30;97.30
36214;DHT22;37652;50.400;30.628;2022-09-09T08:14:45;18.20;96.60
36214;DHT22;37652;50.400;30.628;2022-09-09T08:16:47;18.60;95.70
36214;DHT22;37652;50.400;30.628;2022-09-09T08:18:50;18.90;92.20
36214;DHT22;37652;50.400;30.628;2022-09-09T08:22:52;19.10;92.40
36214;DHT22;37652;50.400;30.628;2022-09-09T08:26:56;19.00;94.90
36214;DHT22;37652;50.400;30.628;2022-09-09T08:28:58;18.90;94.70
36214;DHT22;37652;50.400;30.628;2022-09-09T08:31:15;18.30;94.90
36214;DHT22;37652;50.400;30.628;2022-09-09T08:37:20;19.00;94.90
36214;DHT22;37652;50.400;30.628;2022-09-09T08:43:28;21.90;76.40
36214;DHT22;37652;50.400;30.628;2022-09-09T08:45:35;22.50;85.60
36214;DHT22;37652;50.400;30.628;2022-09-09T08:50:22;24.20;84.30
36214;DHT22;37652;50.400;30.628;2022-09-09T08:52:29;24.80;65.60
36214;DHT22;37652;50.400;30.628;2022-09-09T08:54:34;24.70;64.90
36214;DHT22;37652;50.400;30.628;2022-09-09T08:58:45;25.60;62.50
36214;DHT22;37652;50.400;30.628;2022-09-09T09:03:18;25.80;69.90
36214;DHT22;37652;50.400;30.628;2022-09-09T09:07:59;26.50;57.60
36214;DHT22;37652;50.400;30.628;2022-09-09T09:12:23;26.20;70.30
36214;DHT22;37652;50.400;30.628;2022-09-09T09:21:16;22.30;75.80
36214;DHT22;37652;50.400;30.628;2022-09-09T09:23:19;22.60;69.70
36214;DHT22;37652;50.400;30.628;2022-09-09T09:27:35;23.20;59.30
36214;DHT22;37652;50.400;30.628;2022-09-09T09:29:38;24.20;58.10
36214;DHT22;37652;50.400;30.628;2022-09-09T09:31:46;25.10;57.40
36214;DHT22;37652;50.400;30.628;2022-09-09T09:33:50;25.50;67.50
36214;DHT22;37652;50.400;30.628;2022-09-09T09:37:54;25.40;66.00
36214;DHT22;37652;50.400;30.628;2022-09-09T09:46:17;27.10;54.20
36214;DHT22;37652;50.400;30.628;2022-09-09T09:48:19;26.90;68.20
36214;DHT22;37652;50.400;30.628;2022-09-09T09:52:23;26.10;54.60
36214;DHT22;37652;50.400;30.628;2022-09-09T09:54:30;26.20;54.70
36214;DHT22;37652;50.400;30.628;2022-09-09T09:56:31;25.80;69.70
36214;DHT22;37652;50.400;30.628;2022-09-09T10:00:52;25.30;66.70
36214;DHT22;37652;50.400;30.628;2022-09-09T10:05:05;24.90;70.50
36214;DHT22;37652;50.400;30.628;2022-09-09T10:07:20;25.30;65.70
36214;DHT22;37652;50.400;30.628;2022-09-09T10:09:25;25.80;70.80
36214;DHT22;37652;50.400;30.628;2022-09-09T10:11:39;26.80;54.10
36214;DHT22;37652;50.400;30.628;2022-09-09T10:16:06;26.90;64.60
36214;DHT22;37652;50.400;30.628;2022-09-09T10:18:25;26.50;65.30
36214;DHT22;37652;50.400;30.628;2022-09-09T10:22:53;25.70;52.90
36214;DHT22;37652;50.400;30.628;2022-09-09T10:39:10;23.70;70.20
36214;DHT22;37652;50.400;30.628;2022-09-09T10:41:19;24.40;53.80
36214;DHT22;37652;50.400;30.628;2022-09-09T10:50:29;24.00;54.30
36214;DHT22;37652;50.400;30.628;2022-09-09T10:54:59;25.00;52.80
36214;DHT22;37652;50.400;30.628;2022-09-09T10:57:15;24.70;52.80
36214;DHT22;37652;50.400;30.628;2022-09-09T10:59:24;23.90;53.70
36214;DHT22;37652;50.400;30.628;2022-09-09T11:01:36;23.60;54.20
36214;DHT22;37652;50.400;30.628;2022-09-09T11:03:39;23.20;54.50
36214;DHT22;37652;50.400;30.628;2022-09-09T11:05:46;22.90;53.90
36214;DHT22;37652;50.400;30.628;2022-09-09T11:08:02;22.40;54.50
36214;DHT22;37652;50.400;30.628;2022-09-09T11:10:17;20.70;56.20
36214;DHT22;37652;50.400;30.628;2022-09-09T11:14:32;21.60;72.90
36214;DHT22;37652;50.400;30.628;2022-09-09T11:17:04;21.90;55.40
36214;DHT22;37652;50.400;30.628;2022-09-09T11:19:45;22.00;55.40
36214;DHT22;37652;50.400;30.628;2022-09-09T11:21:48;21.80;55.50
36214;DHT22;37652;50.400;30.628;2022-09-09T11:25:57;21.70;56.60
36214;DHT22;37652;50.400;30.628;2022-09-09T11:32:53;21.20;77.20
36214;DHT22;37652;50.400;30.628;2022-09-09T11:38:02;21.70;56.40
36214;DHT22;37652;50.400;30.628;2022-09-09T11:40:26;22.10;73.80
36214;DHT22;37652;50.400;30.628;2022-09-09T11:44:30;22.00;55.30
36214;DHT22;37652;50.400;30.628;2022-09-09T11:46:34;22.30;55.00
36214;DHT22;37652;50.400;30.628;2022-09-09T11:48:39;22.20;55.20
36214;DHT22;37652;50.400;30.628;2022-09-09T11:52:47;20.70;56.70
36214;DHT22;37652;50.400;30.628;2022-09-09T11:54:49;20.70;57.30
36214;DHT22;37652;50.400;30.628;2022-09-09T11:59:03;20.70;76.80
36214;DHT22;37652;50.400;30.628;2022-09-09T12:01:26;20.50;77.60
36214;DHT22;37652;50.400;30.628;2022-09-09T12:03:45;20.40;58.60
36214;DHT22;37652;50.400;30.628;2022-09-09T12:07:52;20.20;58.90
36214;DHT22;37652;50.400;30.628;2022-09-09T12:14:34;21.20;80.90
36214;DHT22;37652;50.400;30.628;2022-09-09T12:16:37;20.00;59.20
36214;DHT22;37652;50.400;30.628;2022-09-09T12:18:39;20.20;79.00
36214;DHT22;37652;50.400;30.628;2022-09-09T12:21:39;19.80;59.70
36214;DHT22;37652;50.400;30.628;2022-09-09T12:25:19;19.60;80.10
36214;DHT22;37652;50.400;30.628;2022-09-09T12:27:35;19.40;60.40
36214;DHT22;37652;50.400;30.628;2022-09-09T12:29:46;19.30;60.40
36214;DHT22;37652;50.400;30.628;2022-09-09T12:33:50;19.80;79.80
36214;DHT22;37652;50.400;30.628;2022-09-09T12:35:57;20.90;61.10
36214;DHT22;37652;50.400;30.628;2022-09-09T12:38:01;20.00;59.80
36214;DHT22;37652;50.400;30.628;2022-09-09T12:42:24;19.30;79.20
36214;DHT22;37652;50.400;30.628;2022-09-09T12:44:25;20.10;80.20
36214;DHT22;37652;50.400;30.628;2022-09-09T12:48:37;20.00;74.70
36214;DHT22;37652;50.400;30.628;2022-09-09T12:50:48;19.90;60.60
36214;DHT22;37652;50.400;30.628;2022-09-09T12:52:52;19.80;60.10
36214;DHT22;37652;50.400;30.628;2022-09-09T12:54:54;20.60;79.90
36214;DHT22;37652;50.400;30.628;2022-09-09T12:56:55;19.70;60.10
36214;DHT22;37652;50.400;30.628;2022-09-09T12:58:57;19.40;60.50
36214;DHT22;37652;50.400;30.628;2022-09-09T13:00:59;19.20;60.60
36214;DHT22;37652;50.400;30.628;2022-09-09T13:03:13;19.20;60.70
36214;DHT22;37652;50.400;30.628;2022-09-09T13:05:19;18.80;80.50
36214;DHT22;37652;50.400;30.628;2022-09-09T13:07:21;19.10;78.00
36214;DHT22;37652;50.400;30.628;2022-09-09T13:11:27;18.80;61.30
36214;DHT22;37652;50.400;30.628;2022-09-09T13:13:36;18.80;81.60
36214;DHT22;37652;50.400;30.628;2022-09-09T13:17:39;18.60;61.50
36214;DHT22;37652;50.400;30.628;2022-09-09T13:19:44;18.70;82.40
36214;DHT22;37652;50.400;30.628;2022-09-09T13:25:58;18.80;82.00
36214;DHT22;37652;50.400;30.628;2022-09-09T13:28:02;18.20;62.20
36214;DHT22;37652;50.400;30.628;2022-09-09T13:32:24;17.40;62.00
36214;DHT22;37652;50.400;30.628;2022-09-09T13:34:29;18.00;62.60
36214;DHT22;37652;50.400;30.628;2022-09-09T13:36:33;18.00;62.70
36214;DHT22;37652;50.400;30.628;2022-09-09T13:38:53;18.10;83.00
36214;DHT22;37652;50.400;30.628;2022-09-09T13:41:06;17.80;63.00
36214;DHT22;37652;50.400;30.628;2022-09-09T13:43:19;18.20;83.60
36214;DHT22;37652;50.400;30.628;2022-09-09T13:45:23;17.80;62.80
36214;DHT22;37652;50.400;30.628;2022-09-09T13:47:33;17.80;62.80
36214;DHT22;37652;50.400;30.628;2022-09-09T13:49:34;18.80;83.80
36214;DHT22;37652;50.400;30.628;2022-09-09T13:53:40;18.70;69.40
36214;DHT22;37652;50.400;30.628;2022-09-09T13:57:52;17.80;63.20
36214;DHT22;37652;50.400;30.628;2022-09-09T13:59:55;17.80;75.00
36214;DHT22;37652;50.400;30.628;2022-09-09T14:01:55;17.90;77.60
36214;DHT22;37652;50.400;30.628;2022-09-09T14:08:03;17.60;63.10
36214;DHT22;37652;50.400;30.628;2022-09-09T14:10:05;17.60;62.90
36214;DHT22;37652;50.400;30.628;2022-09-09T14:12:13;17.60;63.10
36214;DHT22;37652;50.400;30.628;2022-09-09T14:16:17;17.60;63.50
36214;DHT22;37652;50.400;30.628;2022-09-09T14:22:20;17.50;63.60
36214;DHT22;37652;50.400;30.628;2022-09-09T14:28:23;17.40;84.60
36214;DHT22;37652;50.400;30.628;2022-09-09T14:30:25;17.60;73.60
36214;DHT22;37652;50.400;30.628;2022-09-09T14:38:32;17.50;63.20
36214;DHT22;37652;50.400;30.628;2022-09-09T14:48:46;17.60;84.90
36214;DHT22;37652;50.400;30.628;2022-09-09T14:52:49;17.30;63.80
36214;DHT22;37652;50.400;30.628;2022-09-09T14:54:50;17.40;86.90
36214;DHT22;37652;50.400;30.628;2022-09-09T14:58:57;17.20;84.60
36214;DHT22;37652;50.400;30.628;2022-09-09T15:03:10;17.40;70.60
36214;DHT22;37652;50.400;30.628;2022-09-09T15:11:14;17.20;64.40
36214;DHT22;37652;50.400;30.628;2022-09-09T15:25:24;17.40;67.70
36214;DHT22;37652;50.400;30.628;2022-09-09T15:31:28;16.90;63.90
36214;DHT22;37652;50.400;30.628;2022-09-09T15:33:29;16.80;64.00
36214;DHT22;37652;50.400;30.628;2022-09-09T15:35:29;17.10;85.70
36214;DHT22;37652;50.400;30.628;2022-09-09T15:39:31;17.10;85.50
36214;DHT22;37652;50.400;30.628;2022-09-09T15:41:32;16.70;85.60
36214;DHT22;37652;50.400;30.628;2022-09-09T15:49:36;16.80;64.20
36214;DHT22;37652;50.400;30.628;2022-09-09T15:51:44;16.80;64.40
36214;DHT22;37652;50.400;30.628;2022-09-09T15:53:46;17.10;85.90
36214;DHT22;37652;50.400;30.628;2022-09-09T15:55:47;16.70;86.00
36214;DHT22;37652;50.400;30.628;2022-09-09T15:59:58;16.60;85.60
36214;DHT22;37652;50.400;30.628;2022-09-09T16:04:01;16.40;86.50
36214;DHT22;37652;50.400;30.628;2022-09-09T16:10:05;16.60;76.60
36214;DHT22;37652;50.400;30.628;2022-09-09T16:20:15;16.30;88.20
36214;DHT22;37652;50.400;30.628;2022-09-09T16:24:19;16.60;90.10
36214;DHT22;37652;50.400;30.628;2022-09-09T16:28:21;16.30;68.10
36214;DHT22;37652;50.400;30.628;2022-09-09T16:32:23;16.30;69.20
36214;DHT22;37652;50.400;30.628;2022-09-09T16:34:24;16.70;90.80
36214;DHT22;37652;50.400;30.628;2022-09-09T16:36:27;16.10;86.70
36214;DHT22;37652;50.400;30.628;2022-09-09T16:38:30;15.60;74.30
36214;DHT22;37652;50.400;30.628;2022-09-09T16:40:36;16.10;69.80
36214;DHT22;37652;50.400;30.628;2022-09-09T16:42:37;16.10;90.80
36214;DHT22;37652;50.400;30.628;2022-09-09T16:46:41;15.90;70.70
36214;DHT22;37652;50.400;30.628;2022-09-09T16:50:44;16.40;91.30
36214;DHT22;37652;50.400;30.628;2022-09-09T16:52:46;15.40;91.20
36214;DHT22;37652;50.400;30.628;2022-09-09T16:58:59;15.80;72.30
36214;DHT22;37652;50.400;30.628;2022-09-09T17:01:01;15.70;72.30
36214;DHT22;37652;50.400;30.628;2022-09-09T17:05:04;16.00;92.10
36214;DHT22;37652;50.400;30.628;2022-09-09T17:09:11;15.60;73.30
36214;DHT22;37652;50.400;30.628;2022-09-09T17:11:16;15.10;92.60
36214;DHT22;37652;50.400;30.628;2022-09-09T17:15:20;15.60;93.00
36214;DHT22;37652;50.400;30.628;2022-09-09T17:21:26;14.90;92.50
36214;DHT22;37652;50.400;30.628;2022-09-09T17:25:29;15.50;92.30
36214;DHT22;37652;50.400;30.628;2022-09-09T17:31:32;14.90;92.30
36214;DHT22;37652;50.400;30.628;2022-09-09T17:33:35;15.90;92.60
36214;DHT22;37652;50.400;30.628;2022-09-09T17:39:39;15.40;74.10
36214;DHT22;37652;50.400;30.628;2022-09-09T17:47:44;15.00;92.80
36214;DHT22;37652;50.400;30.628;2022-09-09T17:51:46;15.20;93.30
36214;DHT22;37652;50.400;30.628;2022-09-09T17:53:50;15.20;90.40
36214;DHT22;37652;50.400;30.628;2022-09-09T17:59:53;15.90;93.10
36214;DHT22;37652;50.400;30.628;2022-09-09T18:01:53;15.40;92.80
36214;DHT22;37652;50.400;30.628;2022-09-09T18:06:07;15.90;92.70
36214;DHT22;37652;50.400;30.628;2022-09-09T18:08:08;15.40;87.60
36214;DHT22;37652;50.400;30.628;2022-09-09T18:14:14;15.30;73.10
36214;DHT22;37652;50.400;30.628;2022-09-09T18:16:18;15.30;73.20
36214;DHT22;37652;50.400;30.628;2022-09-09T18:18:19;15.50;80.50
36214;DHT22;37652;50.400;30.628;2022-09-09T18:20:20;15.20;73.50
36214;DHT22;37652;50.400;30.628;2022-09-09T18:24:22;15.10;73.70
36214;DHT22;37652;50.400;30.628;2022-09-09T18:26:24;15.20;73.80
36214;DHT22;37652;50.400;30.628;2022-09-09T18:28:26;15.50;78.50
36214;DHT22;37652;50.400;30.628;2022-09-09T18:34:31;15.00;93.00
36214;DHT22;37652;50.400;30.628;2022-09-09T18:36:35;14.90;86.60
36214;DHT22;37652;50.400;30.628;2022-09-09T18:42:38;15.30;93.20
36214;DHT22;37652;50.400;30.628;2022-09-09T18:48:42;14.80;74.70
36214;DHT22;37652;50.400;30.628;2022-09-09T18:56:50;14.90;94.00
36214;DHT22;37652;50.400;30.628;2022-09-09T19:08:59;14.60;89.30
36214;DHT22;37652;50.400;30.628;2022-09-09T19:11:00;15.30;93.10
36214;DHT22;37652;50.400;30.628;2022-09-09T19:13:01;14.70;74.80
36214;DHT22;37652;50.400;30.628;2022-09-09T19:15:02;14.70;93.10
36214;DHT22;37652;50.400;30.628;2022-09-09T19:17:03;14.80;93.20
36214;DHT22;37652;50.400;30.628;2022-09-09T19:19:07;14.70;74.90
36214;DHT22;37652;50.400;30.628;2022-09-09T19:21:26;14.60;75.00
36214;DHT22;37652;50.400;30.628;2022-09-09T19:25:34;14.60;74.60
36214;DHT22;37652;50.400;30.628;2022-09-09T19:33:40;14.70;93.10
36214;DHT22;37652;50.400;30.628;2022-09-09T19:39:46;14.60;74.50
36214;DHT22;37652;50.400;30.628;2022-09-09T19:54:08;15.50;93.40
36214;DHT22;37652;50.400;30.628;2022-09-09T19:56:10;14.50;74.50
36214;DHT22;37652;50.400;30.628;2022-09-09T20:02:14;14.20;94.00
36214;DHT22;37652;50.400;30.628;2022-09-09T20:06:18;14.50;74.90
36214;DHT22;37652;50.400;30.628;2022-09-09T20:10:20;13.90;92.70
36214;DHT22;37652;50.400;30.628;2022-09-09T20:16:27;14.80;93.10
36214;DHT22;37652;50.400;30.628;2022-09-09T20:18:33;14.30;75.50
36214;DHT22;37652;50.400;30.628;2022-09-09T20:20:39;14.30;75.50
36214;DHT22;37652;50.400;30.628;2022-09-09T20:30:48;14.20;76.60
36214;DHT22;37652;50.400;30.628;2022-09-09T20:38:57;14.00;79.10
36214;DHT22;37652;50.400;30.628;2022-09-09T20:41:03;14.00;96.00
36214;DHT22;37652;50.400;30.628;2022-09-09T20:45:05;13.90;79.70
36214;DHT22;37652;50.400;30.628;2022-09-09T20:47:05;14.00;95.90
36214;DHT22;37652;50.400;30.628;2022-09-09T20:49:07;13.70;80.20
36214;DHT22;37652;50.400;30.628;2022-09-09T20:53:10;13.60;81.40
36214;DHT22;37652;50.400;30.628;2022-09-09T20:57:12;13.50;82.70
36214;DHT22;37652;50.400;30.628;2022-09-09T20:59:16;13.40;83.60
36214;DHT22;37652;50.400;30.628;2022-09-09T21:01:20;13.30;84.30
36214;DHT22;37652;50.400;30.628;2022-09-09T21:07:26;12.60;98.60
36214;DHT22;37652;50.400;30.628;2022-09-09T21:13:33;12.80;99.80
36214;DHT22;37652;50.400;30.628;2022-09-09T21:25:40;12.40;92.60
36214;DHT22;37652;50.400;30.628;2022-09-09T21:33:45;12.10;96.30
36214;DHT22;37652;50.400;30.628;2022-09-09T21:35:46;12.00;97.60
36214;DHT22;37652;50.400;30.628;2022-09-09T21:41:49;11.90;99.90
36214;DHT22;37652;50.400;30.628;2022-09-09T21:43:52;11.70;99.90
36214;DHT22;37652;50.400;30.628;2022-09-09T21:51:56;11.80;99.90
36214;DHT22;37652;50.400;30.628;2022-09-09T21:56:04;11.30;99.90
36214;DHT22;37652;50.400;30.628;2022-09-09T21:58:09;11.20;99.90
36214;DHT22;37652;50.400;30.628;2022-09-09T22:00:11;11.10;99.90
36214;DHT22;37652;50.400;30.628;2022-09-09T22:20:31;10.90;99.90
36214;DHT22;37652;50.400;30.628;2022-09-09T22:26:36;10.80;99.90
36214;DHT22;37652;50.400;30.628;2022-09-09T22:32:39;10.70;99.90
36214;DHT22;37652;50.400;30.628;2022-09-09T22:36:41;10.70;99.90
36214;DHT22;37652;50.400;30.628;2022-09-09T22:38:41;10.10;99.90
36214;DHT22;37652;50.400;30.628;2022-09-09T22:44:44;10.10;99.90
36214;DHT22;37652;50.400;30.628;2022-09-09T22:48:46;10.60;99.90
36214;DHT22;37652;50.400;30.628;2022-09-09T22:52:48;11.00;99.90
36214;DHT22;37652;50.400;30.628;2022-09-09T22:58:53;10.50;99.90
36214;DHT22;37652;50.400;30.628;2022-09-09T23:00:58;10.50;99.90
36214;DHT22;37652;50.400;30.628;2022-09-09T23:05:00;9.90;99.90
36214;DHT22;37652;50.400;30.628;2022-09-09T23:11:08;10.40;99.90
36214;DHT22;37652;50.400;30.628;2022-09-09T23:21:18;10.80;99.90
36214;DHT22;37652;50.400;30.628;2022-09-09T23:25:20;9.80;99.90
36214;DHT22;37652;50.400;30.628;2022-09-09T23:27:21;10.30;99.90
36214;DHT22;37652;50.400;30.628;2022-09-09T23:31:23;10.30;99.90
36214;DHT22;37652;50.400;30.628;2022-09-09T23:35:26;9.80;99.90
36214;DHT22;37652;50.400;30.628;2022-09-09T23:37:26;10.60;99.90
36214;DHT22;37652;50.400;30.628;2022-09-09T23:41:33;10.30;99.90
36214;DHT22;37652;50.400;30.628;2022-09-09T23:53:44;10.40;99.90
36214;DHT22;37652;50.400;30.628;2022-09-09T23:57:49;10.50;99.90
